createdAt,value
2022-08-16T00:01:54.610Z,72.43
2022-08-16T00:08:30.722Z,72.38
2022-08-16T00:14:37.592Z,72.54
2022-08-16T00:20:57.587Z,72.66
2022-08-16T00:27:20.564Z,72.65
2022-08-16T00:33:40.594Z,72.63
2022-08-16T00:40:03.620Z,72.72
2022-08-16T00:46:33.477Z,72.73
2022-08-16T00:52:50.719Z,72.88
2022-08-16T00:59:06.592Z,73.01
2022-08-16T01:05:29.582Z,73.09
2022-08-16T01:11:51.803Z,73.08
2022-08-16T01:18:39.555Z,73.05
2022-08-16T01:24:44.826Z,72.7
2022-08-16T01:30:55.572Z,72.72
2022-08-16T01:37:16.105Z,72.68
2022-08-16T01:43:38.607Z,72.75
2022-08-16T01:50:43.692Z,73.09
2022-08-16T01:56:23.569Z,73.11
2022-08-16T02:02:42.380Z,73.23
2022-08-16T02:09:05.113Z,72.89
2022-08-16T02:15:25.115Z,72.84
2022-08-16T02:22:08.008Z,73.08
2022-08-16T02:28:07.581Z,73.25
2022-08-16T02:34:32.829Z,73.34
2022-08-16T02:40:50.600Z,73.37
2022-08-16T02:47:13.569Z,73.4
2022-08-16T02:53:33.580Z,73.49
2022-08-16T02:59:56.611Z,73.91
2022-08-16T03:06:36.504Z,74.26
2022-08-16T03:12:55.023Z,74.12
2022-08-16T03:18:59.589Z,74.15
2022-08-16T03:25:22.619Z,74.13
2022-08-16T03:31:42.582Z,74.22
2022-08-16T03:48:14.994Z,75.22
2022-08-16T03:54:31.617Z,75.29
2022-08-16T04:00:56.852Z,75.49
2022-08-16T04:07:14.630Z,75.7
2022-08-16T04:13:58.819Z,75.74
2022-08-16T04:19:58.071Z,75.82
2022-08-16T04:26:20.575Z,75.61
2022-08-16T04:32:40.616Z,75.44
2022-08-16T04:39:03.635Z,75.63
2022-08-16T04:45:35.444Z,75.92
2022-08-16T04:51:53.591Z,75.85
2022-08-16T04:58:45.393Z,75.76
2022-08-16T05:04:29.980Z,76.16
2022-08-16T05:10:49.582Z,76.16
2022-08-16T05:17:12.592Z,76.35
2022-08-16T05:23:32.612Z,76.33
2022-08-16T05:29:56.992Z,76.37
2022-08-16T05:36:15.630Z,76.28
2022-08-16T05:42:38.632Z,76.18
2022-08-16T05:49:01.786Z,75.97
2022-08-16T05:55:21.567Z,75.57
2022-08-16T06:01:41.641Z,75.33
2022-08-16T06:08:04.584Z,74.83
2022-08-16T06:14:24.582Z,74.45
2022-08-16T06:20:51.623Z,73.84
2022-08-16T06:27:07.571Z,73.68
2022-08-16T06:33:30.588Z,73.02
2022-08-16T06:39:50.598Z,72.42
2022-08-16T06:46:13.593Z,71.76
2022-08-16T06:52:58.673Z,71.19
2022-08-16T06:58:56.569Z,71.21
2022-08-16T07:05:16.625Z,70.78
2022-08-16T07:11:45.419Z,69.92
2022-08-16T07:17:59.596Z,69.36
2022-08-16T07:24:29.453Z,68.92
2022-08-16T07:30:45.370Z,68.13
2022-08-16T07:37:05.586Z,67.77
2022-08-16T07:43:28.738Z,66.89
2022-08-16T07:49:49.811Z,66.51
2022-08-16T07:56:08.569Z,66.06
2022-08-16T08:02:31.583Z,63.68
2022-08-16T08:08:52.674Z,61.88
2022-08-16T08:15:14.568Z,61.65
2022-08-16T08:21:48.824Z,61.64
2022-08-16T08:27:57.819Z,60.62
2022-08-16T08:34:17.575Z,59.64
2022-08-16T08:40:40.591Z,59.28
2022-08-16T08:47:01.466Z,57.71
2022-08-16T08:53:26.162Z,57.73
2022-08-16T08:59:43.563Z,56.6
2022-08-16T09:23:07.563Z,53.06
2022-08-16T09:29:44.678Z,52.84
2022-08-16T09:35:52.943Z,50.4
2022-08-16T09:42:13.564Z,49.95
2022-08-16T09:48:37.086Z,49.33
2022-08-16T09:54:56.585Z,49.38
2022-08-16T10:01:16.568Z,48.62
2022-08-16T10:07:44.865Z,46.81
2022-08-16T10:13:59.576Z,45.21
2022-08-16T10:20:22.563Z,44.98
2022-08-16T10:27:00.195Z,45.58
2022-08-16T10:33:05.558Z,43.88
2022-08-16T10:39:25.624Z,42.91
2022-08-16T10:45:57.316Z,41.99
2022-08-16T10:52:18.492Z,41.11
2022-08-16T10:58:34.184Z,39.68
2022-08-16T11:05:08.484Z,40.89
2022-08-16T11:11:19.350Z,38.92
2022-08-16T11:17:34.558Z,40.05
2022-08-16T11:23:58.790Z,40.28
2022-08-16T11:30:19.780Z,38.85
2022-08-16T11:36:53.389Z,39.45
2022-08-16T11:43:00.583Z,38.71
2022-08-16T11:49:23.568Z,36.6
2022-08-16T11:55:44.119Z,36.98
2022-08-16T12:02:31.802Z,36.56
2022-08-16T12:08:27.254Z,34.37
2022-08-16T12:14:52.187Z,33.92
2022-08-16T12:21:09.891Z,32.1
2022-08-16T12:27:32.564Z,33.21
2022-08-16T12:33:54.264Z,31.81
2022-08-16T12:40:17.273Z,29.05
2022-08-16T12:46:35.585Z,25.79
2022-08-16T12:52:58.853Z,27
2022-08-16T12:59:20.292Z,25.93
2022-08-16T13:05:42.965Z,27.72
2022-08-16T13:12:01.560Z,27.8
2022-08-16T13:18:27.308Z,28.39
2022-08-16T13:24:44.569Z,27.83
2022-08-16T13:31:08.084Z,28.12
2022-08-16T13:37:27.573Z,27.75
2022-08-16T13:43:50.948Z,27.93
2022-08-16T13:50:10.850Z,27.56
2022-08-16T13:56:34.330Z,27.33
2022-08-16T14:02:55.817Z,29.19
2022-08-16T14:09:16.573Z,31.1
2022-08-16T14:15:36.565Z,29.64
2022-08-16T14:22:13.890Z,29.79
2022-08-16T14:28:19.559Z,30
2022-08-16T14:34:42.588Z,30.1
2022-08-16T14:41:02.579Z,31.22
2022-08-16T14:47:25.563Z,31.23
2022-08-16T14:53:45.703Z,29.33
2022-08-16T15:00:08.615Z,29.93
2022-08-16T15:06:28.917Z,30.52
2022-08-16T15:23:15.560Z,31.36
2022-08-16T15:29:35.584Z,30.85
2022-08-16T15:35:58.604Z,31.38
2022-08-16T15:42:27.580Z,32.47
2022-08-16T15:48:41.571Z,34.35
2022-08-16T15:55:07.639Z,32.48
2022-08-16T16:01:24.643Z,31.88
2022-08-16T16:07:56.009Z,31.37
2022-08-16T16:14:07.567Z,30.78
2022-08-16T16:20:27.987Z,32.96
2022-08-16T16:26:50.582Z,31.98
2022-08-16T16:33:10.571Z,31.65
2022-08-16T16:39:33.619Z,31.64
2022-08-16T16:45:53.575Z,33.33
2022-08-16T16:52:31.432Z,33.6
2022-08-16T16:58:36.803Z,32.44
2022-08-16T17:04:59.573Z,33.31
2022-08-16T17:11:19.588Z,31.98
2022-08-16T17:17:59.463Z,33.11
2022-08-16T17:24:02.593Z,34.64
2022-08-16T17:30:29.115Z,34.29
2022-08-16T17:36:52.894Z,32.38
2022-08-16T17:43:08.569Z,34
2022-08-16T17:49:28.624Z,33.77
2022-08-16T17:55:51.586Z,34.9
2022-08-16T18:02:14.389Z,35.45
2022-08-16T18:08:34.811Z,37.46
2022-08-16T18:14:56.981Z,38.82
2022-08-16T18:21:17.620Z,40.9
2022-08-16T18:27:37.581Z,41.61
2022-08-16T18:34:00.571Z,42.38
2022-08-16T18:40:20.568Z,43.04
2022-08-16T18:46:43.558Z,43.96
2022-08-16T18:53:03.589Z,44.08
2022-08-16T18:59:26.596Z,44.69
2022-08-16T19:05:46.556Z,44.72
2022-08-16T19:12:09.582Z,45.61
2022-08-16T19:18:29.565Z,45.25
2022-08-16T19:24:52.573Z,45.99
2022-08-16T19:31:12.569Z,47.45
2022-08-16T19:37:35.559Z,48.26
2022-08-16T19:43:55.575Z,49.23
2022-08-16T19:50:18.553Z,50.08
2022-08-16T19:56:38.577Z,51.14
2022-08-16T20:03:01.584Z,51.64
2022-08-16T20:09:21.594Z,52.24
2022-08-16T20:15:44.598Z,52.48
2022-08-16T20:22:04.985Z,53.52
2022-08-16T20:28:39.750Z,53.53
2022-08-16T20:34:47.614Z,53.93
2022-08-16T20:41:10.641Z,54.34
2022-08-16T20:58:11.565Z,56.03
2022-08-16T21:04:34.555Z,56.38
2022-08-16T21:10:54.670Z,56.89
2022-08-16T21:17:17.601Z,57.07
2022-08-16T21:23:37.589Z,57.12
2022-08-16T21:30:00.568Z,57.03
2022-08-16T21:36:34.724Z,57.39
2022-08-16T21:42:43.597Z,57.08
2022-08-16T21:49:03.577Z,56.8
2022-08-16T21:55:26.566Z,56.74
2022-08-16T22:19:41.576Z,58.17
2022-08-16T22:26:01.565Z,58.28
2022-08-16T22:32:24.559Z,58.51
2022-08-16T22:38:55.461Z,58.67
2022-08-16T22:45:07.578Z,59.03
2022-08-16T22:51:27.580Z,59.29
2022-08-16T22:57:50.555Z,59.47
2022-08-16T23:04:10.635Z,59.44
2022-08-16T23:10:33.559Z,59.41
2022-08-16T23:16:53.623Z,59.4
2022-08-16T23:23:20.144Z,59.44
2022-08-16T23:29:36.550Z,59.23
2022-08-16T23:35:59.586Z,59.39
2022-08-16T23:42:42.118Z,59.35
2022-08-16T23:49:55.766Z,59.7
2022-08-16T23:55:02.618Z,59.65
